• Join FlightAware (Why Join?)
  • Login
  • US Flag 
10:48PM EDT


 

Airport Tracker/Info


-or-


 

Live Flight TrackerFlight Track Log ✈ ASQ4633 ✈ 18-Apr-2013 ✈ KEWR - KBTV

Flight Track Log - Related Links

Times and Time Zones

All times are in EDT time to prevent confusion due to time zone crossing. See the ASQ4633 flight status page for this flight to view local times or setup timezone preferences in your user account.

Time Position Orientation Groundspeed Altitude Reporting Facility
EDT Latitude Longitude Course Direction KTS MPH feet Rate Location/Type
05:23PM 40.6500 -74.1833 27° Northeast 166 191 2,000  Level New York TRACON
05:24PM 40.6667 -74.2667 285° West 279 321 4,000 2,040 Climbing New York TRACON
05:25PM 40.7333 -74.2000 37° Northeast 292 336 6,400 2,220 Climbing New York TRACON
05:26PM 40.9797 -73.8370 37° Northeast  Level FlightAware Approximate
05:26PM 40.7833 -74.1167 52° Northeast 308 354 8,500  Level New York TRACON
05:27PM 41.0573 -73.7523 40° Northeast  Level FlightAware Approximate
05:28PM 41.1340 -73.6662 27° Northeast  Level FlightAware Approximate
05:28PM 40.8561 -73.9767 55° Northeast 348 400 10,000  Level Boston Center
05:29PM 40.9289 -73.8303 57° Northeast 368 423 10,200 480 Climbing Boston Center
05:30PM 40.9947 -73.7189 52° Northeast 375 432 11,000 900 Climbing Boston Center
05:31PM 41.0914 -73.6408 31° Northeast 389 448 12,000 480 Climbing Boston Center
05:32PM 41.1756 -73.5708 32° Northeast 405 466 12,000  Level Boston Center
05:33PM 41.2806 -73.4842 32° Northeast 405 466 12,100 480 Climbing Boston Center
05:34PM 41.3667 -73.4108 33° Northeast 400 460 13,000 900 Climbing Boston Center
05:35PM 41.4653 -73.3319 31° Northeast 405 466 14,000 1,200 Climbing Boston Center
05:36PM 41.5578 -73.2142 44° Northeast 410 472 15,400 1,020 Climbing Boston Center
05:37PM 41.6356 -73.1344 37° Northeast 410 472 16,100 900 Climbing Boston Center
05:38PM 41.7564 -73.1275 North 390 449 17,300 960 Climbing Boston Center
05:39PM 41.8564 -73.1453 352° North 390 449 18,000 780 Climbing Boston Center
05:40PM 41.9564 -73.1631 352° North 396 456 18,900 900 Climbing Boston Center
05:41PM 42.0769 -73.1869 352° North 396 456 19,900 1,140 Climbing Boston Center
05:42PM 42.1997 -73.2081 353° North 396 456 21,200 1,080 Climbing Boston Center
05:43PM 42.3019 -73.2261 353° North 401 461 22,100 360 Climbing Boston Center
05:44PM 42.4331 -73.2361 357° North 415 478 22,000 -60 Descending Boston Center
05:45PM 42.5539 -73.2603 352° North 427 491 22,000  Level Boston Center
05:46PM 42.6847 -73.2931 350° North 432 497 22,000  Level Boston Center
05:47PM 42.7825 -73.3114 352° North 432 497 22,000 60 Level Boston Center
05:48PM 42.9386 -73.3364 353° North 432 497 22,200 480 Climbing Boston Center
05:49PM 43.0575 -73.3408 358° North 427 491 23,000 360 Climbing Boston Center
05:50PM 43.1828 -73.3256 North 427 491 23,000  Level Boston Center
05:51PM 43.3350 -73.3050 North 445 512 23,000 -360 Level Boston Center
05:52PM 43.4414 -73.2894 North 439 505 22,300 -1,260 Descending Boston Center
05:53PM 43.5603 -73.2739 North 427 491 20,600 -2,100 Descending Boston Center
05:54PM 43.6792 -73.2583 North 427 491 18,200 -2,340 Descending Boston Center
05:55PM 43.7917 -73.2425 North 416 479 16,000 -2,460 Descending Boston Center
05:56PM 43.9003 -73.2294 North 402 463 13,300 -1,560 Descending Boston Center
05:57PM 43.9878 -73.2192 North 391 450 13,000 -180 Descending Boston Center
05:58PM 44.1233 -73.2208 359° North 379 436 13,000 -240 Level Boston Center
05:59PM 44.2272 -73.2397 353° North 374 430 12,600 -1,200 Descending Boston Center
06:00PM 44.3147 -73.2611 350° North 342 394 10,700 -2,400 Descending Boston Center
06:01PM 44.3958 -73.2797 351° North 300 345 8,000 -2,580 Descending Boston Center
06:02PM 44.4642 -73.3214 336° Northwest 265 305 5,700 -1,860 Descending Boston Center
06:03PM 44.5036 -73.3569 327° Northwest 252 290 4,300 -1,800 Descending Boston Center
06:04PM 44.5867 -73.3817 348° North 234 269 2,100 -1,140 Descending Boston Center
06:05PM 44.5747 -73.3144 104° East 110 127 2,100  Level Boston Center